createdAt,value
2019-02-07T00:02:43.004Z,95710.13
2019-02-07T00:05:12.140Z,95705.83
2019-02-07T00:07:43.080Z,95702.65
2019-02-07T00:10:28.956Z,95702.14
2019-02-07T00:12:58.022Z,95698.38
2019-02-07T00:15:44.841Z,95696.88
2019-02-07T00:18:38.691Z,95696.41
2019-02-07T00:21:07.773Z,95695.01
2019-02-07T00:23:58.545Z,95691.02
2019-02-07T00:26:53.613Z,95696.75
2019-02-07T00:29:38.858Z,95699.23
2019-02-07T00:32:12.799Z,95697.07
2019-02-07T00:34:54.411Z,95701.58
2019-02-07T00:40:09.004Z,95701.95
2019-02-07T00:42:57.470Z,95707.15
2019-02-07T00:45:30.303Z,95699.63
2019-02-07T00:47:59.379Z,95698.94
2019-02-07T00:50:33.552Z,95690.92
2019-02-07T00:53:02.644Z,95689.07
2019-02-07T00:55:34.097Z,95683.98
2019-02-07T00:58:05.095Z,95681.00
2019-02-07T01:00:39.862Z,95682.52
2019-02-07T01:03:08.924Z,95683.45
2019-02-07T01:05:38.000Z,95682.02
2019-02-07T01:08:08.742Z,95684.25
2019-02-07T01:10:42.042Z,95682.13
2019-02-07T01:13:11.120Z,95681.23
2019-02-07T01:15:41.641Z,95683.52
2019-02-07T01:18:10.700Z,95668.67
2019-02-07T01:20:43.103Z,95672.83
2019-02-07T01:23:14.147Z,95664.63
2019-02-07T01:25:44.179Z,95668.67
2019-02-07T01:30:59.424Z,95654.03
2019-02-07T01:33:29.483Z,95646.30
2019-02-07T01:36:02.706Z,95640.20
2019-02-07T01:38:54.262Z,95634.14
2019-02-07T01:41:25.895Z,95625.20
2019-02-07T01:43:54.999Z,95625.60
2019-02-07T01:49:08.251Z,95618.30
2019-02-07T01:54:23.056Z,95617.11
2019-02-07T01:59:43.060Z,95606.33
2019-02-07T02:02:13.067Z,95607.91
2019-02-07T02:07:27.810Z,95597.19
2019-02-07T02:10:04.451Z,95598.84
2019-02-07T02:12:33.513Z,95592.55
2019-02-07T02:15:03.568Z,95575.31
2019-02-07T02:17:40.337Z,95573.42
2019-02-07T02:20:17.858Z,95569.84
2019-02-07T02:22:55.879Z,95578.58
2019-02-07T02:25:24.937Z,95570.77
2019-02-07T02:30:32.383Z,95574.29
2019-02-07T02:33:01.944Z,95566.45
2019-02-07T02:35:31.939Z,95563.55
2019-02-07T02:41:01.158Z,95547.53
2019-02-07T02:43:30.215Z,95553.52
2019-02-07T02:46:09.681Z,95558.92
2019-02-07T02:48:51.588Z,95554.20
2019-02-07T02:51:25.827Z,95558.83
2019-02-07T02:56:33.147Z,95545.06
2019-02-07T02:59:04.708Z,95539.70
2019-02-07T03:04:16.911Z,95537.53
2019-02-07T03:07:09.642Z,95541.87
2019-02-07T03:09:49.135Z,95535.37
2019-02-07T03:15:04.784Z,95529.38
2019-02-07T03:17:39.396Z,95518.73
2019-02-07T03:20:09.356Z,95511.35
2019-02-07T03:22:42.936Z,95505.14
2019-02-07T03:31:00.129Z,95488.53
2019-02-07T03:45:26.784Z,95471.16
2019-02-07T03:47:59.796Z,95474.37
2019-02-07T03:53:18.388Z,95473.45
2019-02-07T03:55:47.435Z,95471.70
2019-02-07T04:04:16.033Z,95478.17
2019-02-07T04:12:10.160Z,95463.86
2019-02-07T04:17:34.731Z,95459.23
2019-02-07T04:20:06.240Z,95448.61
2019-02-07T04:22:52.712Z,95447.17
2019-02-07T04:25:41.466Z,95445.66
2019-02-07T04:28:12.722Z,95443.43
2019-02-07T04:36:54.229Z,95429.94
2019-02-07T04:42:14.381Z,95428.56
2019-02-07T04:47:50.885Z,95412.39
2019-02-07T04:50:21.579Z,95418.81
2019-02-07T04:53:00.286Z,95416.19
2019-02-07T04:58:05.535Z,95416.88
2019-02-07T05:06:55.636Z,95418.69
2019-02-07T05:09:30.480Z,95426.08
2019-02-07T05:11:59.635Z,95418.91
2019-02-07T05:14:43.972Z,95414.73
2019-02-07T05:17:15.934Z,95421.20
2019-02-07T05:23:03.173Z,95419.41
2019-02-07T05:28:13.707Z,95425.02
2019-02-07T05:30:55.854Z,95420.98
2019-02-07T05:36:03.093Z,95422.03
2019-02-07T05:38:34.275Z,95417.06
2019-02-07T05:41:19.590Z,95421.55
2019-02-07T05:46:38.414Z,95423.52
2019-02-07T05:52:03.079Z,95419.89
2019-02-07T05:54:39.250Z,95412.30
2019-02-07T05:57:24.595Z,95417.32
2019-02-07T06:00:14.859Z,95413.35
2019-02-07T06:09:16.506Z,95416.91
2019-02-07T06:14:31.100Z,95416.06
2019-02-07T06:17:03.188Z,95415.02
2019-02-07T06:22:29.250Z,95412.95
2019-02-07T06:25:19.289Z,95425.59
2019-02-07T06:30:32.995Z,95420.10
2019-02-07T06:33:13.382Z,95425.11
2019-02-07T06:38:36.374Z,95421.09
2019-02-07T06:41:09.669Z,95422.27
2019-02-07T06:43:43.996Z,95424.30
2019-02-07T06:46:19.430Z,95420.50
2019-02-07T06:54:23.748Z,95427.78
2019-02-07T07:05:40.392Z,95431.76
2019-02-07T07:08:12.046Z,95430.09
2019-02-07T07:10:44.899Z,95433.66
2019-02-07T07:13:17.845Z,95431.11
2019-02-07T07:15:57.399Z,95428.89
2019-02-07T07:24:44.257Z,95435.16
2019-02-07T07:27:14.776Z,95428.73
2019-02-07T07:32:44.452Z,95427.38
2019-02-07T07:37:57.196Z,95425.12
2019-02-07T07:40:34.167Z,95420.69
2019-02-07T07:43:10.536Z,95415.30
2019-02-07T07:51:30.765Z,95413.34
2019-02-07T07:54:05.115Z,95415.73
2019-02-07T07:56:40.047Z,95416.50
2019-02-07T07:59:12.078Z,95416.07
2019-02-07T08:01:45.568Z,95414.77
2019-02-07T08:04:16.599Z,95405.70
2019-02-07T08:06:51.241Z,95407.52
2019-02-07T08:12:02.496Z,95395.45
2019-02-07T08:17:16.266Z,95412.55
2019-02-07T08:19:50.729Z,95409.98
2019-02-07T08:30:56.398Z,95409.16
2019-02-07T08:39:06.313Z,95411.91
2019-02-07T08:41:47.186Z,95401.89
2019-02-07T08:47:01.280Z,95404.50
2019-02-07T08:49:34.877Z,95399.96
2019-02-07T08:52:05.689Z,95403.63
2019-02-07T08:55:02.695Z,95409.09
2019-02-07T08:57:36.732Z,95397.37
2019-02-07T09:00:09.996Z,95398.42
2019-02-07T09:02:51.563Z,95390.15
2019-02-07T09:05:19.080Z,95395.93
2019-02-07T09:07:52.856Z,95386.85
2019-02-07T09:10:31.207Z,95384.86
2019-02-07T09:13:05.966Z,95377.80
2019-02-07T09:20:59.446Z,95364.94
2019-02-07T09:26:35.368Z,95359.88
2019-02-07T09:29:08.515Z,95356.72
2019-02-07T09:31:41.006Z,95356.58
2019-02-07T09:34:15.559Z,95350.73
2019-02-07T09:36:56.752Z,95360.45
2019-02-07T09:39:31.438Z,95353.28
2019-02-07T09:42:03.872Z,95353.84
2019-02-07T09:44:46.734Z,95349.14
2019-02-07T09:50:15.107Z,95348.55
2019-02-07T09:52:45.068Z,95347.89
2019-02-07T09:55:15.669Z,95346.83
2019-02-07T10:03:34.735Z,95342.41
2019-02-07T10:06:08.519Z,95339.69
2019-02-07T10:09:03.487Z,95339.91
2019-02-07T10:11:51.069Z,95344.47
2019-02-07T10:17:21.286Z,95336.59
2019-02-07T10:22:30.722Z,95334.14
2019-02-07T10:25:04.718Z,95332.72
2019-02-07T10:27:38.061Z,95328.63
2019-02-07T10:30:08.025Z,95331.67
2019-02-07T10:35:22.691Z,95319.55
2019-02-07T10:37:44.407Z,95316.68
2019-02-07T10:44:48.186Z,95307.25
2019-02-07T10:47:30.369Z,95303.94
2019-02-07T10:58:21.500Z,95290.47
2019-02-07T11:00:56.527Z,95292.42
2019-02-07T11:03:31.806Z,95293.09
2019-02-07T11:09:03.991Z,95278.19
2019-02-07T11:11:33.040Z,95272.50
2019-02-07T11:14:13.602Z,95262.38
2019-02-07T11:19:31.239Z,95257.97
2019-02-07T11:22:05.076Z,95256.25
2019-02-07T11:24:35.004Z,95251.79
2019-02-07T11:27:12.361Z,95250.44
2019-02-07T11:29:43.984Z,95249.66
2019-02-07T11:32:16.261Z,95243.81
2019-02-07T11:40:08.765Z,95238.85
2019-02-07T11:42:38.695Z,95243.14
2019-02-07T11:50:43.927Z,95238.42
2019-02-07T11:53:33.315Z,95232.09
2019-02-07T11:56:13.386Z,95233.50
2019-02-07T11:58:49.428Z,95232.17
2019-02-07T12:04:17.357Z,95225.69
2019-02-07T12:06:50.704Z,95224.86
2019-02-07T12:09:21.172Z,95220.69
2019-02-07T12:11:52.986Z,95223.22
2019-02-07T12:14:27.650Z,95225.16
2019-02-07T12:17:13.559Z,95223.09
2019-02-07T12:19:48.215Z,95228.23
2019-02-07T12:25:14.879Z,95231.30
2019-02-07T12:27:50.456Z,95227.25
2019-02-07T12:30:21.264Z,95226.94
2019-02-07T12:32:52.062Z,95223.52
2019-02-07T12:40:58.999Z,95221.84
2019-02-07T12:46:22.502Z,95221.23
2019-02-07T12:48:57.048Z,95222.27
2019-02-07T12:57:53.359Z,95217.44
2019-02-07T13:00:28.356Z,95216.83
2019-02-07T13:02:58.729Z,95219.40
2019-02-07T13:08:33.854Z,95221.12
2019-02-07T13:11:07.370Z,95214.61
2019-02-07T13:13:52.507Z,95212.81
2019-02-07T13:19:02.276Z,95208.47
2019-02-07T13:24:15.164Z,95214.17
2019-02-07T13:26:44.294Z,95213.02
2019-02-07T13:29:19.740Z,95208.25
2019-02-07T13:31:54.171Z,95207.69
2019-02-07T13:34:33.218Z,95204.61
2019-02-07T13:37:17.772Z,95211.09
2019-02-07T13:39:57.244Z,95209.63
2019-02-07T13:42:37.567Z,95212.62
2019-02-07T13:48:08.371Z,95215.50
2019-02-07T13:50:44.118Z,95221.34
2019-02-07T13:56:06.863Z,95218.69
2019-02-07T13:58:40.301Z,95223.58
2019-02-07T14:01:25.101Z,95229.36
2019-02-07T14:03:55.426Z,95236.72
2019-02-07T14:06:27.415Z,95240.83
2019-02-07T14:09:03.073Z,95247.22
2019-02-07T14:11:39.363Z,95239.55
2019-02-07T14:14:13.737Z,95251.38
2019-02-07T14:16:57.827Z,95254.76
2019-02-07T14:19:40.740Z,95252.82
2019-02-07T14:22:15.862Z,95253.48
2019-02-07T14:24:50.268Z,95257.95
2019-02-07T14:27:21.146Z,95267.34
2019-02-07T14:35:35.344Z,95254.72
2019-02-07T14:38:20.040Z,95260.46
2019-02-07T14:40:54.495Z,95263.80
2019-02-07T14:46:34.810Z,95264.90
2019-02-07T14:49:06.738Z,95273.50
2019-02-07T14:51:39.501Z,95272.37
2019-02-07T14:54:11.547Z,95277.72
2019-02-07T14:57:06.218Z,95284.32
2019-02-07T15:02:16.307Z,95284.45
2019-02-07T15:04:51.736Z,95285.69
2019-02-07T15:07:26.816Z,95280.67
2019-02-07T15:09:59.271Z,95279.41
2019-02-07T15:12:28.339Z,95271.69
2019-02-07T15:14:57.871Z,95277.80
2019-02-07T15:17:26.940Z,95275.17
2019-02-07T15:20:00.726Z,95276.38
2019-02-07T15:22:30.627Z,95270.72
2019-02-07T15:25:03.317Z,95269.16
2019-02-07T15:27:39.896Z,95266.34
2019-02-07T15:30:10.541Z,95260.07
2019-02-07T15:32:40.511Z,95263.34
2019-02-07T15:35:10.930Z,95264.68
2019-02-07T15:37:39.979Z,95268.20
2019-02-07T15:40:10.514Z,95274.74
2019-02-07T15:42:39.590Z,95278.71
2019-02-07T15:45:08.631Z,95279.17
2019-02-07T15:47:50.320Z,95276.78
2019-02-07T15:50:21.896Z,95277.77
2019-02-07T15:52:52.132Z,95276.59
2019-02-07T15:55:20.907Z,95274.61
2019-02-07T16:00:38.222Z,95271.39
2019-02-07T16:03:07.537Z,95265.44
2019-02-07T16:05:36.575Z,95270.23
2019-02-07T16:08:05.621Z,95263.94
2019-02-07T16:10:34.673Z,95255.73
2019-02-07T16:13:04.326Z,95271.28
2019-02-07T16:18:09.043Z,95280.34
2019-02-07T16:20:48.924Z,95274.15
2019-02-07T16:23:14.843Z,95282.77
2019-02-07T16:25:50.290Z,95282.47
2019-02-07T16:28:20.392Z,95291.45
2019-02-07T16:30:53.608Z,95285.36
2019-02-07T16:33:24.726Z,95285.89
2019-02-07T16:36:03.175Z,95282.89
2019-02-07T16:38:36.533Z,95293.14
2019-02-07T16:41:05.711Z,95297.48
2019-02-07T16:43:40.613Z,95311.38
2019-02-07T16:46:10.067Z,95310.73
2019-02-07T16:51:15.373Z,95310.94
2019-02-07T16:54:03.588Z,95321.56
2019-02-07T16:56:35.846Z,95325.58
2019-02-07T16:59:06.306Z,95324.08
2019-02-07T17:02:02.823Z,95325.16
2019-02-07T17:07:08.571Z,95339.42
2019-02-07T17:09:41.033Z,95334.11
2019-02-07T17:12:10.821Z,95335.23
2019-02-07T17:14:43.646Z,95336.09
2019-02-07T17:17:12.691Z,95335.63
2019-02-07T17:20:00.447Z,95341.23
2019-02-07T17:23:04.270Z,95340.30
2019-02-07T17:25:42.807Z,95352.39
2019-02-07T17:28:11.851Z,95348.26
2019-02-07T17:33:22.589Z,95347.19
2019-02-07T17:36:03.894Z,95358.94
2019-02-07T17:38:32.927Z,95354.89
2019-02-07T17:41:02.887Z,95352.44
2019-02-07T17:43:33.484Z,95360.36
2019-02-07T17:46:03.456Z,95363.42
2019-02-07T17:48:46.302Z,95365.88
2019-02-07T17:51:22.865Z,95368.77
2019-02-07T17:53:50.665Z,95367.45
2019-02-07T17:56:19.700Z,95361.56
2019-02-07T17:58:48.732Z,95360.80
2019-02-07T18:01:17.758Z,95360.48
2019-02-07T18:04:00.024Z,95360.30
2019-02-07T18:06:47.012Z,95363.59
2019-02-07T18:09:16.064Z,95362.11
2019-02-07T18:14:20.823Z,95368.48
2019-02-07T18:16:52.396Z,95366.58
2019-02-07T18:19:21.458Z,95364.45
2019-02-07T18:22:03.312Z,95366.40
2019-02-07T18:24:57.025Z,95367.58
2019-02-07T18:27:31.202Z,95371.91
2019-02-07T18:30:07.599Z,95368.38
2019-02-07T18:32:49.071Z,95368.73
2019-02-07T18:35:18.152Z,95367.37
2019-02-07T18:38:03.921Z,95364.72
2019-02-07T18:40:43.286Z,95366.17
2019-02-07T18:43:12.888Z,95365.23
2019-02-07T18:45:42.942Z,95367.31
2019-02-07T18:48:11.970Z,95373.52
2019-02-07T18:51:02.852Z,95375.30
2019-02-07T18:53:39.287Z,95377.48
2019-02-07T18:56:08.838Z,95371.66
2019-02-07T18:59:03.740Z,95376.84
2019-02-07T19:02:04.295Z,95376.41
2019-02-07T19:04:34.306Z,95380.59
2019-02-07T19:07:03.352Z,95383.81
2019-02-07T19:12:10.534Z,95384.03
2019-02-07T19:14:40.364Z,95375.48
2019-02-07T19:17:29.024Z,95375.91
2019-02-07T19:20:05.474Z,95380.53
2019-02-07T19:22:34.954Z,95380.22
2019-02-07T19:25:29.191Z,95381.61
2019-02-07T19:28:23.935Z,95388.78
2019-02-07T19:31:01.822Z,95390.98
2019-02-07T19:33:30.866Z,95389.42
2019-02-07T19:36:01.816Z,95398.20
2019-02-07T19:38:32.870Z,95389.31
2019-02-07T19:43:35.683Z,95392.53
2019-02-07T19:48:52.973Z,95401.05
2019-02-07T19:51:29.113Z,95399.74
2019-02-07T19:54:22.653Z,95399.20
2019-02-07T19:56:56.956Z,95399.97
2019-02-07T19:59:26.030Z,95401.83
2019-02-07T20:01:55.120Z,95409.95
2019-02-07T20:07:14.497Z,95413.02
2019-02-07T20:09:52.024Z,95415.22
2019-02-07T20:12:25.937Z,95417.94
2019-02-07T20:17:45.888Z,95422.07
2019-02-07T20:20:29.398Z,95427.00
2019-02-07T20:23:29.403Z,95427.64
2019-02-07T20:26:02.775Z,95430.45
2019-02-07T20:28:32.719Z,95432.69
2019-02-07T20:31:02.715Z,95438.17
2019-02-07T20:33:32.324Z,95436.78
2019-02-07T20:36:30.390Z,95437.53
2019-02-07T20:39:11.959Z,95438.79
2019-02-07T20:41:40.994Z,95443.41
2019-02-07T20:44:28.640Z,95440.84
2019-02-07T20:47:12.612Z,95447.70
2019-02-07T20:49:41.636Z,95456.98
2019-02-07T20:52:27.256Z,95449.73
2019-02-07T20:57:34.359Z,95467.50
2019-02-07T21:00:17.763Z,95468.22
2019-02-07T21:02:46.813Z,95467.34
2019-02-07T21:05:30.905Z,95468.06
2019-02-07T21:08:00.127Z,95474.30
2019-02-07T21:10:30.626Z,95476.09
2019-02-07T21:13:03.299Z,95474.25
2019-02-07T21:15:32.403Z,95472.00
2019-02-07T21:18:01.474Z,95473.71
2019-02-07T21:23:06.317Z,95476.32
2019-02-07T21:25:53.848Z,95479.38
2019-02-07T21:28:22.918Z,95492.45
2019-02-07T21:30:52.868Z,95496.27
2019-02-07T21:36:06.592Z,95497.91
2019-02-07T21:38:53.042Z,95504.84
2019-02-07T21:41:43.383Z,95508.77
2019-02-07T21:44:12.414Z,95509.19
2019-02-07T21:46:52.634Z,95516.36
2019-02-07T21:49:40.363Z,95518.03
2019-02-07T21:52:09.985Z,95513.41
2019-02-07T21:54:52.916Z,95524.84
2019-02-07T21:57:23.341Z,95526.81
2019-02-07T22:00:00.480Z,95537.63
2019-02-07T22:02:39.946Z,95538.81
2019-02-07T22:05:09.815Z,95547.20
2019-02-07T22:10:54.455Z,95554.80
2019-02-07T22:13:24.439Z,95559.63
2019-02-07T22:15:53.562Z,95567.30
2019-02-07T22:18:41.437Z,95565.09
2019-02-07T22:23:46.987Z,95577.31
2019-02-07T22:26:20.769Z,95591.41
2019-02-07T22:28:50.740Z,95589.97
2019-02-07T22:31:20.131Z,95601.99
2019-02-07T22:33:52.659Z,95606.33
2019-02-07T22:36:34.789Z,95611.93
2019-02-07T22:39:07.620Z,95611.67
2019-02-07T22:41:36.706Z,95614.30
2019-02-07T22:46:42.005Z,95620.70
2019-02-07T22:51:53.782Z,95628.73
2019-02-07T22:54:31.871Z,95625.73
2019-02-07T22:57:14.076Z,95626.17
2019-02-07T22:59:43.226Z,95630.02
2019-02-07T23:02:13.913Z,95639.74
2019-02-07T23:04:43.157Z,95634.44
2019-02-07T23:07:12.335Z,95635.18
2019-02-07T23:09:44.290Z,95644.75
2019-02-07T23:12:13.542Z,95647.88
2019-02-07T23:15:05.665Z,95641.87
2019-02-07T23:17:34.746Z,95648.44
2019-02-07T23:20:09.647Z,95648.67
2019-02-07T23:22:41.253Z,95651.84
2019-02-07T23:25:10.484Z,95657.67
2019-02-07T23:30:18.334Z,95663.23
2019-02-07T23:35:23.855Z,95664.25
2019-02-07T23:37:52.939Z,95661.63
2019-02-07T23:40:22.272Z,95665.58
2019-02-07T23:43:00.871Z,95671.97
2019-02-07T23:45:46.540Z,95666.54
2019-02-07T23:48:16.988Z,95670.75
2019-02-07T23:51:07.330Z,95667.50
2019-02-07T23:54:02.028Z,95673.39
2019-02-07T23:56:45.754Z,95669.52
2019-02-07T23:59:14.820Z,95679.39
